createdAt,value
2018-10-05T00:01:26.546Z,4.47
2018-10-05T00:03:55.004Z,4.27
2018-10-05T00:06:23.484Z,4.73
2018-10-05T00:08:51.991Z,4.67
2018-10-05T00:11:20.449Z,4.00
2018-10-05T00:13:49.283Z,5.87
2018-10-05T00:16:17.723Z,5.40
2018-10-05T00:18:46.254Z,4.67
2018-10-05T00:21:14.783Z,4.77
2018-10-05T00:23:43.258Z,4.83
2018-10-05T00:26:11.730Z,5.20
2018-10-05T00:28:40.210Z,4.50
2018-10-05T00:31:08.672Z,4.30
2018-10-05T00:33:37.150Z,6.30
2018-10-05T00:36:05.679Z,5.10
2018-10-05T00:38:34.151Z,4.83
2018-10-05T00:41:02.610Z,4.87
2018-10-05T00:43:32.183Z,5.37
2018-10-05T00:46:00.963Z,4.50
2018-10-05T00:48:30.172Z,5.00
2018-10-05T00:50:58.635Z,5.10
2018-10-05T00:53:27.246Z,5.00
2018-10-05T00:55:55.575Z,5.43
2018-10-05T00:58:24.079Z,5.63
2018-10-05T01:00:52.591Z,4.70
2018-10-05T01:03:21.080Z,4.80
2018-10-05T01:05:49.533Z,5.53
2018-10-05T01:08:17.981Z,4.50
2018-10-05T01:10:46.490Z,5.40
2018-10-05T01:13:14.935Z,4.83
2018-10-05T01:15:43.386Z,4.90
2018-10-05T01:18:11.846Z,4.20
2018-10-05T01:20:40.370Z,4.90
2018-10-05T01:23:08.827Z,5.10
2018-10-05T01:25:37.365Z,4.87
2018-10-05T01:28:05.785Z,4.77
2018-10-05T01:30:34.242Z,4.50
2018-10-05T01:33:02.646Z,5.30
2018-10-05T01:35:31.130Z,4.60
2018-10-05T01:37:59.547Z,4.73
2018-10-05T01:40:28.022Z,4.40
2018-10-05T01:42:56.443Z,4.50
2018-10-05T01:45:25.408Z,4.97
2018-10-05T01:47:53.827Z,4.47
2018-10-05T01:50:22.294Z,4.30
2018-10-05T01:52:50.993Z,4.00
2018-10-05T01:55:19.443Z,3.80
2018-10-05T01:57:48.200Z,3.90
2018-10-05T02:00:16.642Z,3.67
2018-10-05T02:02:45.364Z,4.63
2018-10-05T02:05:13.836Z,4.20
2018-10-05T02:07:42.322Z,4.10
2018-10-05T02:10:10.789Z,3.90
2018-10-05T02:12:39.210Z,4.80
2018-10-05T02:15:07.734Z,4.20
2018-10-05T02:17:36.131Z,4.60
2018-10-05T02:20:04.810Z,4.10
2018-10-05T02:22:33.230Z,4.80
2018-10-05T02:25:01.764Z,5.37
2018-10-05T02:27:30.269Z,4.70
2018-10-05T02:29:58.653Z,4.67
2018-10-05T02:32:27.105Z,4.30
2018-10-05T02:34:55.525Z,4.73
2018-10-05T02:37:23.966Z,4.50
2018-10-05T02:39:52.370Z,4.17
2018-10-05T02:42:20.824Z,4.83
2018-10-05T02:44:49.256Z,4.70
2018-10-05T02:47:17.654Z,4.47
2018-10-05T02:49:46.118Z,6.17
2018-10-05T02:52:14.578Z,4.90
2018-10-05T02:54:43.722Z,5.60
2018-10-05T02:57:12.202Z,4.70
2018-10-05T02:59:40.695Z,5.00
2018-10-05T03:02:29.689Z,4.90
2018-10-05T03:04:58.286Z,4.60
2018-10-05T03:07:27.754Z,5.27
2018-10-05T03:09:56.460Z,5.30
2018-10-05T03:12:25.450Z,4.70
2018-10-05T03:14:54.061Z,4.60
2018-10-05T03:17:22.479Z,4.50
2018-10-05T03:19:51.413Z,4.77
2018-10-05T03:22:20.218Z,5.43
2018-10-05T03:24:48.910Z,5.23
2018-10-05T03:27:17.566Z,5.17
2018-10-05T03:29:46.667Z,4.90
2018-10-05T03:32:15.149Z,4.83
2018-10-05T03:34:43.562Z,4.10
2018-10-05T03:37:12.270Z,4.70
2018-10-05T03:39:40.789Z,6.00
2018-10-05T03:42:09.631Z,4.57
2018-10-05T03:44:38.090Z,4.63
2018-10-05T03:47:06.555Z,4.53
2018-10-05T03:49:35.010Z,4.80
2018-10-05T03:52:03.493Z,5.33
2018-10-05T03:54:32.177Z,4.93
2018-10-05T03:57:00.615Z,4.20
2018-10-05T03:59:29.182Z,4.77
2018-10-05T04:01:57.631Z,4.73
2018-10-05T04:04:26.035Z,4.47
2018-10-05T04:06:54.478Z,4.40
2018-10-05T04:09:22.918Z,4.97
2018-10-05T04:11:51.415Z,5.10
2018-10-05T04:14:19.826Z,5.30
2018-10-05T04:16:48.272Z,4.90
2018-10-05T04:19:16.723Z,5.20
2018-10-05T04:21:45.193Z,4.23
2018-10-05T04:24:14.586Z,3.70
2018-10-05T04:26:43.017Z,3.80
2018-10-05T04:29:12.110Z,4.03
2018-10-05T04:31:41.066Z,4.17
2018-10-05T04:34:09.514Z,4.50
2018-10-05T04:36:38.153Z,3.77
2018-10-05T04:39:08.071Z,4.20
2018-10-05T04:41:36.490Z,3.57
2018-10-05T04:44:05.239Z,3.70
2018-10-05T04:46:33.806Z,4.03
2018-10-05T04:49:02.498Z,4.50
2018-10-05T04:51:30.910Z,4.77
2018-10-05T04:53:59.860Z,4.37
2018-10-05T04:56:28.356Z,4.73
2018-10-05T04:58:57.090Z,5.10
2018-10-05T05:01:25.804Z,5.50
2018-10-05T05:03:54.683Z,4.70
2018-10-05T05:06:23.169Z,5.03
2018-10-05T05:08:51.563Z,4.00
2018-10-05T05:11:20.037Z,5.47
2018-10-05T05:13:48.731Z,5.20
2018-10-05T05:16:17.117Z,5.30
2018-10-05T05:18:45.602Z,5.10
2018-10-05T05:21:13.986Z,5.20
2018-10-05T05:23:43.053Z,6.03
2018-10-05T05:26:11.791Z,4.77
2018-10-05T05:28:40.528Z,5.07
2018-10-05T05:31:09.262Z,4.87
2018-10-05T05:33:37.789Z,5.60
2018-10-05T05:36:07.470Z,4.77
2018-10-05T05:38:36.666Z,4.30
2018-10-05T05:41:05.213Z,4.50
2018-10-05T05:43:34.578Z,4.87
2018-10-05T05:46:03.015Z,4.30
2018-10-05T05:48:31.702Z,4.37
2018-10-05T05:51:00.134Z,6.30
2018-10-05T05:53:28.832Z,4.77
2018-10-05T05:55:57.274Z,4.83
2018-10-05T05:58:25.679Z,4.60
2018-10-05T06:00:54.156Z,4.80
2018-10-05T06:03:22.581Z,4.17
2018-10-05T06:05:51.022Z,4.03
2018-10-05T06:08:19.726Z,3.90
2018-10-05T06:10:48.163Z,3.97
2018-10-05T06:13:16.568Z,4.53
2018-10-05T06:15:45.012Z,4.43
2018-10-05T06:18:13.771Z,4.27
2018-10-05T06:20:42.175Z,4.40
2018-10-05T06:23:10.590Z,4.13
2018-10-05T06:25:39.026Z,4.30
2018-10-05T06:28:08.325Z,4.07
2018-10-05T06:30:37.115Z,4.87
2018-10-05T06:33:05.545Z,4.90
2018-10-05T06:35:34.338Z,5.50
2018-10-05T06:38:02.789Z,5.70
2018-10-05T06:40:31.200Z,5.40
2018-10-05T06:42:59.601Z,5.53
2018-10-05T06:45:28.038Z,4.47
2018-10-05T06:47:56.438Z,4.40
2018-10-05T06:50:24.905Z,4.90
2018-10-05T06:52:53.625Z,5.37
2018-10-05T06:55:22.242Z,4.10
2018-10-05T06:57:50.950Z,5.60
2018-10-05T07:00:19.725Z,5.23
2018-10-05T07:02:48.367Z,5.10
2018-10-05T07:05:16.823Z,4.60
2018-10-05T07:07:45.259Z,4.30
2018-10-05T07:10:13.946Z,5.30
2018-10-05T07:12:42.367Z,4.73
2018-10-05T07:15:10.812Z,4.93
2018-10-05T07:17:39.295Z,5.50
2018-10-05T07:20:07.705Z,5.07
2018-10-05T07:22:36.213Z,4.27
2018-10-05T07:25:04.995Z,4.67
2018-10-05T07:27:33.428Z,5.53
2018-10-05T07:30:01.871Z,4.53
2018-10-05T07:32:30.722Z,4.70
2018-10-05T07:34:59.142Z,5.50
2018-10-05T07:37:27.675Z,5.07
2018-10-05T07:39:56.087Z,4.27
2018-10-05T07:42:24.489Z,4.60
2018-10-05T07:44:52.955Z,5.60
2018-10-05T07:47:21.593Z,4.80
2018-10-05T07:49:51.123Z,4.70
2018-10-05T07:52:19.817Z,4.57
2018-10-05T07:54:48.510Z,5.20
2018-10-05T07:57:21.645Z,5.03
2018-10-05T07:59:50.218Z,5.43
2018-10-05T08:02:18.611Z,5.20
2018-10-05T08:04:47.047Z,4.53
2018-10-05T08:07:15.809Z,5.53
2018-10-05T08:09:44.366Z,5.20
2018-10-05T08:12:13.176Z,4.23
2018-10-05T08:14:41.633Z,4.53
2018-10-05T08:17:10.381Z,5.37
2018-10-05T08:19:38.823Z,5.33
2018-10-05T08:22:07.280Z,5.40
2018-10-05T08:24:35.723Z,5.37
2018-10-05T08:27:04.846Z,5.43
2018-10-05T08:29:33.236Z,5.47
2018-10-05T08:32:01.694Z,4.23
2018-10-05T08:34:30.253Z,5.00
2018-10-05T08:36:58.651Z,5.43
2018-10-05T08:39:27.281Z,5.50
2018-10-05T08:41:56.031Z,5.47
2018-10-05T08:44:24.469Z,5.00
2018-10-05T08:46:52.876Z,5.60
2018-10-05T08:49:21.306Z,4.40
2018-10-05T08:51:49.746Z,4.93
2018-10-05T08:54:18.195Z,6.70
2018-10-05T08:56:46.594Z,5.30
2018-10-05T08:59:15.013Z,5.10
2018-10-05T09:01:43.398Z,5.00
2018-10-05T09:04:11.876Z,5.07
2018-10-05T09:06:40.299Z,4.87
2018-10-05T09:09:09.103Z,5.93
2018-10-05T09:11:37.510Z,5.70
2018-10-05T09:14:06.315Z,5.40
2018-10-05T09:16:34.720Z,5.33
2018-10-05T09:19:03.526Z,5.20
2018-10-05T09:21:32.071Z,4.70
2018-10-05T09:24:00.518Z,5.33
2018-10-05T09:26:28.989Z,5.40
2018-10-05T09:28:57.712Z,5.60
2018-10-05T09:31:26.145Z,5.17
2018-10-05T09:33:54.546Z,4.70
2018-10-05T09:36:23.309Z,4.50
2018-10-05T09:38:52.312Z,5.07
2018-10-05T09:41:20.776Z,5.60
2018-10-05T09:43:49.286Z,5.20
2018-10-05T09:46:17.713Z,5.40
2018-10-05T09:48:46.110Z,5.20
2018-10-05T09:51:14.638Z,5.43
2018-10-05T09:53:43.414Z,4.70
2018-10-05T09:56:11.864Z,4.93
2018-10-05T09:58:40.291Z,6.30
2018-10-05T10:01:14.040Z,4.47
2018-10-05T10:03:42.457Z,5.30
2018-10-05T10:06:11.001Z,4.80
2018-10-05T10:08:40.602Z,4.97
2018-10-05T10:11:09.038Z,4.67
2018-10-05T10:13:37.523Z,4.30
2018-10-05T10:16:06.309Z,4.60
2018-10-05T10:18:34.730Z,4.70
2018-10-05T10:21:03.193Z,5.40
2018-10-05T10:23:31.635Z,5.33
2018-10-05T10:26:00.048Z,5.10
2018-10-05T10:28:28.632Z,5.30
2018-10-05T10:30:56.965Z,5.27
2018-10-05T10:33:25.410Z,4.90
2018-10-05T10:35:53.862Z,5.43
2018-10-05T10:38:22.314Z,6.50
2018-10-05T10:40:51.264Z,5.40
2018-10-05T10:43:19.703Z,5.30
2018-10-05T10:45:48.129Z,5.10
2018-10-05T10:48:16.746Z,5.97
2018-10-05T10:50:45.089Z,5.70
2018-10-05T10:53:13.555Z,5.43
2018-10-05T10:55:42.272Z,5.63
2018-10-05T10:58:10.713Z,5.83
2018-10-05T11:00:39.179Z,5.70
2018-10-05T11:03:07.992Z,5.13
2018-10-05T11:05:36.421Z,5.50
2018-10-05T11:08:04.883Z,4.77
2018-10-05T11:10:33.386Z,4.70
2018-10-05T11:13:01.856Z,4.40
2018-10-05T11:15:30.314Z,4.50
2018-10-05T11:17:59.294Z,5.00
2018-10-05T11:20:28.258Z,3.83
2018-10-05T11:22:56.968Z,4.40
2018-10-05T11:25:25.453Z,3.90
2018-10-05T11:27:53.931Z,3.10
2018-10-05T11:30:22.365Z,3.60
2018-10-05T11:32:51.178Z,4.27
2018-10-05T11:35:19.615Z,3.73
2018-10-05T11:37:48.127Z,3.50
2018-10-05T11:40:16.853Z,4.03
2018-10-05T11:42:45.351Z,3.80
2018-10-05T11:45:13.770Z,3.87
2018-10-05T11:47:42.227Z,3.23
2018-10-05T11:50:10.715Z,4.23
2018-10-05T11:52:39.174Z,4.20
2018-10-05T11:55:07.658Z,3.17
2018-10-05T11:57:36.382Z,3.80
2018-10-05T12:00:04.908Z,3.23
2018-10-05T12:02:33.427Z,3.00
2018-10-05T12:05:01.896Z,3.17
2018-10-05T12:07:30.336Z,3.47
2018-10-05T12:09:58.790Z,2.70
2018-10-05T12:12:27.210Z,2.93
2018-10-05T12:14:55.722Z,3.73
2018-10-05T12:17:24.175Z,3.20
2018-10-05T12:19:52.970Z,2.90
2018-10-05T12:22:21.547Z,3.17
2018-10-05T12:24:49.957Z,2.77
2018-10-05T12:27:18.439Z,3.13
2018-10-05T12:29:47.149Z,3.00
2018-10-05T12:32:16.119Z,3.67
2018-10-05T12:34:44.526Z,3.03
2018-10-05T12:37:12.968Z,2.40
2018-10-05T12:39:42.051Z,3.77
2018-10-05T12:42:10.521Z,3.00
2018-10-05T12:44:38.998Z,3.20
2018-10-05T12:47:07.451Z,2.90
2018-10-05T12:49:35.903Z,4.17
2018-10-05T12:52:04.305Z,3.30
2018-10-05T12:54:32.753Z,3.30
2018-10-05T12:57:01.159Z,3.03
2018-10-05T12:59:29.766Z,2.93
2018-10-05T13:01:58.238Z,2.43
2018-10-05T13:04:26.938Z,2.70
2018-10-05T13:06:55.404Z,2.87
2018-10-05T13:09:24.170Z,2.40
2018-10-05T13:11:52.615Z,2.87
2018-10-05T13:14:21.071Z,2.60
2018-10-05T13:16:50.497Z,2.50
2018-10-05T13:19:18.922Z,2.13
2018-10-05T13:21:47.525Z,2.53
2018-10-05T13:24:15.914Z,2.87
2018-10-05T13:26:44.401Z,2.40
2018-10-05T13:29:12.851Z,2.73
2018-10-05T13:31:41.315Z,2.93
2018-10-05T13:34:09.967Z,2.50
2018-10-05T13:36:38.260Z,2.43
2018-10-05T13:39:08.831Z,2.37
2018-10-05T13:41:37.447Z,2.67
2018-10-05T13:44:06.028Z,2.70
2018-10-05T13:46:34.919Z,3.00
2018-10-05T13:49:04.745Z,2.90
2018-10-05T13:51:33.599Z,2.57
2018-10-05T13:54:02.050Z,2.47
2018-10-05T13:56:30.502Z,3.00
2018-10-05T13:58:58.966Z,2.27
2018-10-05T14:01:27.418Z,3.77
2018-10-05T14:03:56.155Z,2.97
2018-10-05T14:06:24.600Z,2.83
2018-10-05T14:08:53.123Z,2.60
2018-10-05T14:11:21.798Z,2.80
2018-10-05T14:13:50.878Z,3.17
2018-10-05T14:16:19.286Z,2.70
2018-10-05T14:18:47.781Z,2.33
2018-10-05T14:21:16.642Z,3.17
2018-10-05T14:23:45.134Z,2.93
2018-10-05T14:26:13.835Z,2.97
2018-10-05T14:28:42.368Z,2.33
2018-10-05T14:31:11.150Z,2.70
2018-10-05T14:33:39.680Z,3.13
2018-10-05T14:36:08.187Z,3.30
2018-10-05T14:38:36.659Z,3.27
2018-10-05T14:41:05.201Z,2.93
2018-10-05T14:43:34.017Z,3.20
2018-10-05T14:46:02.507Z,2.93
2018-10-05T14:48:31.201Z,2.50
2018-10-05T14:50:59.659Z,2.70
2018-10-05T14:53:28.142Z,3.53
2018-10-05T14:55:56.610Z,2.50
2018-10-05T14:58:25.174Z,3.10
2018-10-05T15:00:53.690Z,2.97
2018-10-05T15:03:22.503Z,2.97
2018-10-05T15:05:51.602Z,3.40
2018-10-05T15:08:20.103Z,3.00
2018-10-05T15:10:48.598Z,2.70
2018-10-05T15:13:17.408Z,3.17
2018-10-05T15:15:46.052Z,3.20
2018-10-05T15:18:14.502Z,2.90
2018-10-05T15:20:43.015Z,3.33
2018-10-05T15:23:11.491Z,3.10
2018-10-05T15:25:40.218Z,2.93
2018-10-05T15:28:08.651Z,3.30
2018-10-05T15:30:37.332Z,3.23
2018-10-05T15:33:05.813Z,3.27
2018-10-05T15:35:34.230Z,3.13
2018-10-05T15:38:03.250Z,3.27
2018-10-05T15:40:31.667Z,3.50
2018-10-05T15:43:00.290Z,4.70
2018-10-05T15:45:29.094Z,3.90
2018-10-05T15:47:57.548Z,3.90
2018-10-05T15:50:25.994Z,3.40
2018-10-05T15:52:54.492Z,4.03
2018-10-05T15:55:23.230Z,4.13
2018-10-05T15:57:51.678Z,4.40
2018-10-05T16:00:20.122Z,4.90
2018-10-05T16:02:48.842Z,6.73
2018-10-05T16:05:17.668Z,5.10
2018-10-05T16:07:46.119Z,5.20
2018-10-05T16:10:14.625Z,6.00
2018-10-05T16:12:43.101Z,6.27
2018-10-05T16:15:11.538Z,4.50
2018-10-05T16:17:39.990Z,5.23
2018-10-05T16:20:08.815Z,5.90
2018-10-05T16:22:37.290Z,5.30
2018-10-05T16:25:05.803Z,4.63
2018-10-05T16:27:34.222Z,4.60
2018-10-05T16:30:02.831Z,3.93
2018-10-05T16:32:31.626Z,4.10
2018-10-05T16:35:00.270Z,3.60
2018-10-05T16:37:29.025Z,4.37
2018-10-05T16:39:57.753Z,3.97
2018-10-05T16:42:26.208Z,5.37
2018-10-05T16:44:54.948Z,5.00
2018-10-05T16:47:23.616Z,4.47
2018-10-05T16:49:52.083Z,3.83
2018-10-05T16:52:20.786Z,4.20
2018-10-05T16:54:49.474Z,4.83
2018-10-05T16:57:17.926Z,4.23
2018-10-05T16:59:46.622Z,4.10
2018-10-05T17:02:15.078Z,3.70
2018-10-05T17:04:43.515Z,4.20
2018-10-05T17:07:12.037Z,4.03
2018-10-05T17:09:40.506Z,4.40
2018-10-05T17:12:08.951Z,3.97
2018-10-05T17:14:37.701Z,4.40
2018-10-05T17:17:06.275Z,4.07
2018-10-05T17:19:34.730Z,3.73
2018-10-05T17:22:03.227Z,4.03
2018-10-05T17:24:31.695Z,3.67
2018-10-05T17:27:00.094Z,4.10
2018-10-05T17:29:28.660Z,4.10
2018-10-05T17:31:57.054Z,3.87
2018-10-05T17:34:25.470Z,5.50
2018-10-05T17:36:54.022Z,4.50
2018-10-05T17:39:22.859Z,3.83
2018-10-05T17:41:51.318Z,3.53
2018-10-05T17:44:19.738Z,4.37
2018-10-05T17:46:48.218Z,3.80
2018-10-05T17:49:16.898Z,3.87
2018-10-05T17:51:45.417Z,3.47
2018-10-05T17:54:13.883Z,4.00
2018-10-05T17:56:42.335Z,3.90
2018-10-05T17:59:10.839Z,3.40
2018-10-05T18:01:39.546Z,4.07
2018-10-05T18:04:07.975Z,4.30
2018-10-05T18:06:36.790Z,3.50
2018-10-05T18:09:06.762Z,3.73
2018-10-05T18:11:35.457Z,3.90
2018-10-05T18:14:03.921Z,4.40
2018-10-05T18:16:32.337Z,3.93
2018-10-05T18:19:00.761Z,4.63
2018-10-05T18:21:29.244Z,4.67
2018-10-05T18:23:58.070Z,5.43
2018-10-05T18:26:26.543Z,5.17
2018-10-05T18:28:55.025Z,5.37
2018-10-05T18:31:23.521Z,5.40
2018-10-05T18:33:52.036Z,4.67
2018-10-05T18:36:20.526Z,5.70
2018-10-05T18:38:49.405Z,4.83
2018-10-05T18:41:17.891Z,5.30
2018-10-05T18:43:46.279Z,4.77
2018-10-05T18:46:14.710Z,5.00
2018-10-05T18:48:43.130Z,4.77
2018-10-05T18:51:11.897Z,5.10
2018-10-05T18:53:40.639Z,5.87
2018-10-05T18:56:20.755Z,5.40
2018-10-05T18:58:49.230Z,5.93
2018-10-05T19:01:17.682Z,5.50
2018-10-05T19:03:46.570Z,5.70
2018-10-05T19:06:15.164Z,6.50
2018-10-05T19:08:43.649Z,5.67
2018-10-05T19:11:12.147Z,7.07
2018-10-05T19:13:40.921Z,5.57
2018-10-05T19:16:09.376Z,5.00
2018-10-05T19:18:37.789Z,5.60
2018-10-05T19:21:06.312Z,6.20
2018-10-05T19:23:34.740Z,5.60
2018-10-05T19:26:03.282Z,5.10
2018-10-05T19:28:31.960Z,5.90
2018-10-05T19:31:00.378Z,5.60
2018-10-05T19:33:28.802Z,5.53
2018-10-05T19:35:57.451Z,5.83
2018-10-05T19:38:25.926Z,5.13
2018-10-05T19:40:54.781Z,5.43
2018-10-05T19:43:23.608Z,5.10
2018-10-05T19:45:52.089Z,4.90
2018-10-05T19:48:20.555Z,5.00
2018-10-05T19:50:50.006Z,4.90
2018-10-05T19:53:18.468Z,5.37
2018-10-05T19:55:46.930Z,5.33
2018-10-05T19:58:15.339Z,4.77
2018-10-05T20:00:43.781Z,4.83
2018-10-05T20:03:12.210Z,4.60
2018-10-05T20:05:40.962Z,5.33
2018-10-05T20:08:09.396Z,5.37
2018-10-05T20:10:37.908Z,5.30
2018-10-05T20:13:06.930Z,5.40
2018-10-05T20:15:35.533Z,5.33
2018-10-05T20:18:04.261Z,5.63
2018-10-05T20:20:32.660Z,5.90
2018-10-05T20:23:01.149Z,5.80
2018-10-05T20:25:29.706Z,5.70
2018-10-05T20:27:58.242Z,5.37
2018-10-05T20:30:26.832Z,6.23
2018-10-05T20:32:56.375Z,5.20
2018-10-05T20:35:24.839Z,4.47
2018-10-05T20:37:53.422Z,4.93
2018-10-05T20:40:21.965Z,5.37
2018-10-05T20:42:50.878Z,5.87
2018-10-05T20:45:19.377Z,5.37
2018-10-05T20:47:47.821Z,5.33
2018-10-05T20:50:16.350Z,5.10
2018-10-05T20:52:44.767Z,4.80
2018-10-05T20:55:13.246Z,5.43
2018-10-05T20:57:41.686Z,5.33
2018-10-05T21:00:10.217Z,4.57
2018-10-05T21:02:39.170Z,5.10
2018-10-05T21:05:07.696Z,5.70
2018-10-05T21:07:36.662Z,5.07
2018-10-05T21:10:05.151Z,5.67
2018-10-05T21:12:34.031Z,5.30
2018-10-05T21:15:02.495Z,5.13
2018-10-05T21:17:31.004Z,5.67
2018-10-05T21:19:59.430Z,5.30
2018-10-05T21:22:27.924Z,5.57
2018-10-05T21:24:56.413Z,4.70
2018-10-05T21:27:24.935Z,5.27
2018-10-05T21:29:53.386Z,5.50
2018-10-05T21:32:22.366Z,6.03
2018-10-05T21:34:51.180Z,5.53
2018-10-05T21:37:19.647Z,6.17
2018-10-05T21:39:48.227Z,6.43
2018-10-05T21:42:16.959Z,6.27
2018-10-05T21:44:45.421Z,6.10
2018-10-05T21:47:13.970Z,5.97
2018-10-05T21:49:43.241Z,6.13
2018-10-05T21:52:11.726Z,6.63
2018-10-05T21:54:40.175Z,6.97
2018-10-05T21:57:08.700Z,5.60
2018-10-05T21:59:37.287Z,6.43
2018-10-05T22:02:05.817Z,6.30
2018-10-05T22:04:34.306Z,5.80
2018-10-05T22:07:02.782Z,6.70
2018-10-05T22:09:31.221Z,5.90
2018-10-05T22:12:00.832Z,6.10
2018-10-05T22:14:29.388Z,6.43
2018-10-05T22:16:57.859Z,6.23
2018-10-05T22:19:27.094Z,6.17
2018-10-05T22:21:55.555Z,6.27
2018-10-05T22:24:24.008Z,6.50
2018-10-05T22:26:52.485Z,6.53
2018-10-05T22:29:20.937Z,6.60
2018-10-05T22:31:49.387Z,6.00
2018-10-05T22:34:17.824Z,7.40
2018-10-05T22:36:47.249Z,6.77
2018-10-05T22:39:16.142Z,7.03
2018-10-05T22:41:44.614Z,6.37
2018-10-05T22:44:13.357Z,6.53
2018-10-05T22:46:41.835Z,6.30
2018-10-05T22:49:10.499Z,6.30
2018-10-05T22:51:39.261Z,6.67
2018-10-05T22:54:07.715Z,6.60
2018-10-05T22:56:36.506Z,7.87
2018-10-05T22:59:05.183Z,6.30
2018-10-05T23:01:33.875Z,6.10
2018-10-05T23:04:02.587Z,7.20
2018-10-05T23:06:31.346Z,7.20
2018-10-05T23:08:59.764Z,6.37
2018-10-05T23:11:28.261Z,6.70
2018-10-05T23:13:56.654Z,6.13
2018-10-05T23:16:25.361Z,6.67
2018-10-05T23:18:53.770Z,6.30
2018-10-05T23:21:22.238Z,6.30
2018-10-05T23:23:50.671Z,6.57
2018-10-05T23:26:19.462Z,6.40
2018-10-05T23:28:48.256Z,7.33
2018-10-05T23:31:17.131Z,8.07
2018-10-05T23:33:46.167Z,6.60
2018-10-05T23:36:14.906Z,6.83
2018-10-05T23:38:43.393Z,6.97
2018-10-05T23:41:11.890Z,7.13
2018-10-05T23:43:40.581Z,6.77
2018-10-05T23:46:09.214Z,6.40
2018-10-05T23:48:37.647Z,7.53
2018-10-05T23:51:06.122Z,6.60
2018-10-05T23:53:34.688Z,7.33
2018-10-05T23:56:03.670Z,7.20
2018-10-05T23:58:32.153Z,6.13
